sim
Sign-in with your pilot id or email,
or register
Callsign
Passwort

Schedule Details

Flight Number: OEC001
Departure: Hammerfest Airport (ENHF) at 21:45
Arrival: Tromso Airport (ENTC) at 23
Route: DCT HK DCT HTK DCT KV

Weather Information
Getting current METAR information for ENHF 200020Z AUTO 21005KT 190V250 9999 -DZ BKN019/// BKN028/// 04/03 Q1006 REDZ RMK WIND 1254FT 20011KT
Getting current METAR information for ENTC 200020Z 19017KT 9999 BKN025 06/03 Q1006 RMK WIND 2600FT 18024KT

Schedule Frequency

Route Map